Time;durP1;ratioP1;P1;durP2;ratioP2;P2;SDS_P1;SDS_P2;PMS_P1;PMS_P2;Temp;Humidity;BMP_temperature;BMP_pressure;BME280_temperature;BME280_humidity;BME280_pressure;Samples;Min_cycle;Max_cycle;Signal;HPM_P1;HPM_P2
2024/01/03 00:00:25;;;;;;;7.63;4.07;;;1.00;99.90;;;;;;5028079;28;20040;-85
2024/01/03 00:02:51;;;;;;;8.13;4.22;;;1.00;99.90;;;;;;5060763;28;20024;-85
2024/01/03 00:05:23;;;;;;;6.07;3.72;;;1.00;99.90;;;;;;5060401;28;20025;-85
2024/01/03 00:07:49;;;;;;;6.68;3.95;;;1.00;99.90;;;;;;5060722;28;20028;-85
2024/01/03 00:10:41;;;;;;;5.72;3.13;;;1.00;99.90;;;;;;5081378;28;20035;-85
2024/01/03 00:13:25;;;;;;;;;;;1.00;99.90;;;;;;5100940;28;20080;-85
2024/01/03 00:16:00;;;;;;;6.25;3.45;;;1.00;99.90;;;;;;5119013;28;19949;-85
2024/01/03 00:18:51;;;;;;;7.75;3.90;;;1.00;99.90;;;;;;5118546;28;20024;-85
2024/01/03 00:21:25;;;;;;;6.05;3.60;;;1.00;99.90;;;;;;5118439;28;20106;-86
2024/01/03 00:23:58;;;;;;;5.40;3.25;;;1.00;99.90;;;;;;5118502;28;20051;-86
2024/01/03 00:26:29;;;;;;;6.82;3.97;;;1.00;99.90;;;;;;5099813;28;20023;-85
2024/01/03 00:28:57;;;;;;;6.60;3.90;;;1.00;99.90;;;;;;5083232;28;20030;-85
2024/01/03 00:31:43;;;;;;;6.40;3.67;;;1.00;99.90;;;;;;5083274;28;20028;-86
2024/01/03 00:34:41;;;;;;;10.75;4.18;;;1.00;99.90;;;;;;5082675;28;20092;-86
2024/01/03 00:37:28;;;;;;;6.80;3.95;;;1.00;99.90;;;;;;5092236;28;20031;-86
2024/01/03 00:39:57;;;;;;;6.82;3.65;;;1.00;99.90;;;;;;5065551;28;20024;-85
2024/01/03 00:42:24;;;;;;;7.72;4.13;;;1.00;99.90;;;;;;5100695;28;20376;-85
2024/01/03 00:44:50;;;;;;;7.15;4.22;;;1.10;99.90;;;;;;5083200;28;20030;-85
2024/01/03 00:47:18;;;;;;;7.80;4.25;;;1.10;99.90;;;;;;5099608;28;20024;-86
2024/01/03 00:49:44;;;;;;;8.05;5.10;;;1.00;99.90;;;;;;5083059;28;20034;-86
2024/01/03 00:52:10;;;;;;;9.48;5.13;;;1.00;99.90;;;;;;5117751;28;20457;-85
2024/01/03 00:54:37;;;;;;;8.18;4.72;;;1.00;99.90;;;;;;5117702;28;20028;-85
2024/01/03 00:57:04;;;;;;;9.25;4.68;;;1.00;99.90;;;;;;5079926;28;20036;-85
2024/01/03 00:59:34;;;;;;;7.15;4.63;;;1.00;99.90;;;;;;5046851;28;20036;-86
2024/01/03 01:02:02;;;;;;;7.47;4.30;;;1.00;99.90;;;;;;5077829;28;20024;-86
2024/01/03 01:04:28;;;;;;;5.60;3.70;;;1.00;99.90;;;;;;5077726;28;20081;-86
2024/01/03 01:06:54;;;;;;;14.88;7.90;;;1.00;99.90;;;;;;5077711;28;20028;-86
2024/01/03 01:09:20;;;;;;;13.13;7.18;;;1.00;99.90;;;;;;5082417;28;20033;-85
2024/01/03 01:11:46;;;;;;;12.38;6.10;;;1.00;99.90;;;;;;5056974;28;20032;-86
2024/01/03 01:14:11;;;;;;;6.60;4.00;;;1.00;99.90;;;;;;5040671;28;20033;-86
2024/01/03 01:16:37;;;;;;;7.13;4.60;;;1.00;99.90;;;;;;5057273;28;20036;-87
2024/01/03 01:19:05;;;;;;;5.68;3.47;;;1.00;99.90;;;;;;5040365;28;20123;-86
2024/01/03 01:21:30;;;;;;;7.22;3.63;;;1.00;99.90;;;;;;5040790;28;20044;-87
2024/01/03 01:23:56;;;;;;;4.95;3.13;;;1.00;99.90;;;;;;5040607;28;20032;-87
2024/01/03 01:26:22;;;;;;;5.80;3.10;;;0.90;99.90;;;;;;5040266;28;20124;-86
2024/01/03 01:28:47;;;;;;;6.15;3.50;;;1.00;99.90;;;;;;5040337;28;20079;-86
2024/01/03 01:31:13;;;;;;;6.00;3.90;;;1.00;99.90;;;;;;5040402;28;20024;-86
2024/01/03 01:33:38;;;;;;;5.18;3.28;;;1.00;99.90;;;;;;5040237;28;20029;-86
2024/01/03 01:36:05;;;;;;;5.70;3.15;;;1.00;99.90;;;;;;5057080;28;20100;-86
2024/01/03 01:38:30;;;;;;;7.05;3.85;;;1.00;99.90;;;;;;5040320;28;20123;-86
2024/01/03 01:40:56;;;;;;;5.57;3.45;;;1.00;99.90;;;;;;5039987;28;20060;-87
2024/01/03 01:43:21;;;;;;;6.80;3.63;;;1.00;99.90;;;;;;5041550;28;20025;-87
2024/01/03 01:45:48;;;;;;;5.43;3.05;;;1.00;99.90;;;;;;5057321;28;20025;-87
2024/01/03 01:48:15;;;;;;;5.55;3.40;;;1.00;99.90;;;;;;5039788;28;20026;-87
2024/01/03 01:50:41;;;;;;;5.57;2.80;;;1.00;99.90;;;;;;5074347;28;20202;-87
2024/01/03 01:53:08;;;;;;;4.32;2.80;;;1.00;99.90;;;;;;5074308;28;20028;-87
2024/01/03 01:55:39;;;;;;;6.35;2.58;;;1.00;99.90;;;;;;5056234;28;20021;-87
2024/01/03 01:58:07;;;;;;;4.25;1.98;;;1.00;99.90;;;;;;5056233;28;20025;-87
2024/01/03 02:00:33;;;;;;;4.80;2.17;;;1.00;99.90;;;;;;5056531;28;20093;-86
2024/01/03 02:02:58;;;;;;;5.15;1.90;;;1.00;99.90;;;;;;5056154;28;20032;-87
2024/01/03 02:05:24;;;;;;;8.07;3.58;;;1.00;99.90;;;;;;5090786;28;20045;-87
2024/01/03 02:07:50;;;;;;;4.88;3.08;;;1.00;99.90;;;;;;5062821;28;20024;-88
2024/01/03 02:10:16;;;;;;;5.75;3.00;;;1.00;99.90;;;;;;5056238;28;20028;-88
2024/01/03 02:12:42;;;;;;;5.82;3.15;;;0.90;99.90;;;;;;5056516;28;20032;-88
2024/01/03 02:15:08;;;;;;;7.20;2.95;;;0.90;99.90;;;;;;5022913;28;20068;-87
2024/01/03 02:17:35;;;;;;;5.82;3.13;;;0.90;99.90;;;;;;5040109;28;20028;-88
2024/01/03 02:20:01;;;;;;;5.25;3.10;;;0.90;99.90;;;;;;5073709;28;20086;-88
2024/01/03 02:22:28;;;;;;;9.65;4.10;;;0.90;99.90;;;;;;5055491;28;20436;-88
2024/01/03 02:24:54;;;;;;;7.53;4.55;;;0.90;99.90;;;;;;5055625;28;20044;-87
2024/01/03 02:27:19;;;;;;;7.82;4.43;;;0.90;99.90;;;;;;5065845;28;20515;-87
2024/01/03 02:29:45;;;;;;;12.00;6.63;;;0.80;99.90;;;;;;5095974;28;20027;-87
2024/01/03 02:32:11;;;;;;;10.93;5.85;;;0.80;99.90;;;;;;5096067;28;20038;-88
2024/01/03 02:34:36;;;;;;;10.52;5.13;;;0.80;99.90;;;;;;5079166;28;20058;-88
2024/01/03 02:37:02;;;;;;;5.28;3.67;;;0.80;99.90;;;;;;5079184;28;20483;-87
2024/01/03 02:39:28;;;;;;;8.18;3.88;;;0.80;99.90;;;;;;5082012;28;20502;-87
2024/01/03 02:41:54;;;;;;;8.93;3.92;;;0.80;99.90;;;;;;5059123;28;20036;-87
2024/01/03 02:44:23;;;;;;;6.07;3.63;;;0.80;99.90;;;;;;5059173;28;20031;-87
2024/01/03 02:46:49;;;;;;;7.35;3.42;;;0.80;99.90;;;;;;5094054;28;20024;-87
2024/01/03 02:49:15;;;;;;;8.02;4.28;;;0.80;99.90;;;;;;5075428;28;20031;-87
2024/01/03 02:51:40;;;;;;;13.02;6.30;;;0.80;99.90;;;;;;5075627;28;20028;-87
2024/01/03 02:54:06;;;;;;;10.02;5.38;;;0.80;99.90;;;;;;5058934;28;20028;-86
2024/01/03 02:56:40;;;;;;;12.07;5.63;;;0.80;99.90;;;;;;5093592;28;20492;-87
2024/01/03 02:59:06;;;;;;;13.88;6.05;;;0.80;99.90;;;;;;5095813;28;20106;-86
2024/01/03 03:01:31;;;;;;;16.65;7.50;;;0.70;99.90;;;;;;5113828;28;20551;-87
2024/01/03 03:03:57;;;;;;;20.65;9.25;;;0.70;99.90;;;;;;5114042;28;20023;-86
2024/01/03 03:06:23;;;;;;;32.50;11.80;;;0.70;99.90;;;;;;5114117;28;20107;-86
2024/01/03 03:08:48;;;;;;;46.05;16.75;;;0.70;99.90;;;;;;5067409;28;20086;-86
2024/01/03 03:11:14;;;;;;;35.28;13.85;;;0.70;99.90;;;;;;5038552;28;20070;-86
2024/01/03 03:13:40;;;;;;;23.38;9.43;;;0.60;99.90;;;;;;5039005;28;20021;-87
2024/01/03 03:16:07;;;;;;;19.88;7.88;;;0.70;99.90;;;;;;5073170;28;20100;-87
2024/01/03 03:18:33;;;;;;;15.93;6.25;;;0.60;99.90;;;;;;5071908;28;20020;-87
2024/01/03 03:21:00;;;;;;;13.05;5.57;;;0.60;99.90;;;;;;5038646;28;20028;-87
2024/01/03 03:23:26;;;;;;;11.65;5.20;;;0.60;99.90;;;;;;5071659;28;20032;-87
2024/01/03 03:25:52;;;;;;;8.80;4.38;;;0.60;99.90;;;;;;5055054;28;20025;-87
2024/01/03 03:28:18;;;;;;;5.35;3.00;;;0.60;99.90;;;;;;5051983;28;20039;-87
2024/01/03 03:30:43;;;;;;;6.03;3.00;;;0.60;99.90;;;;;;5042136;28;20069;-87
2024/01/03 03:33:09;;;;;;;6.95;3.13;;;0.60;99.90;;;;;;5093912;28;20114;-87
2024/01/03 03:35:35;;;;;;;5.68;3.30;;;0.60;99.90;;;;;;5079257;28;20029;-87
2024/01/03 03:38:00;;;;;;;6.20;3.13;;;0.60;99.90;;;;;;5045121;28;20511;-87
2024/01/03 03:40:26;;;;;;;4.20;2.60;;;0.60;99.90;;;;;;5042168;28;20029;-87
2024/01/03 03:42:52;;;;;;;3.90;2.35;;;0.60;99.90;;;;;;5058964;28;20064;-88
2024/01/03 03:45:17;;;;;;;6.88;2.80;;;0.60;99.90;;;;;;5059326;28;20028;-87
2024/01/03 03:47:43;;;;;;;4.88;2.30;;;0.60;99.90;;;;;;5058829;28;20025;-88
2024/01/03 03:50:09;;;;;;;4.82;2.50;;;0.60;99.90;;;;;;5025602;28;20035;-88
2024/01/03 03:52:35;;;;;;;4.43;2.63;;;0.60;99.90;;;;;;5042075;28;20436;-88
2024/01/03 03:55:01;;;;;;;3.55;2.60;;;0.60;99.90;;;;;;5025590;28;20035;-88
2024/01/03 03:57:27;;;;;;;5.00;3.15;;;0.70;99.90;;;;;;5042013;28;20025;-88
2024/01/03 03:59:52;;;;;;;4.13;2.85;;;0.70;99.90;;;;;;5025403;28;20489;-88
2024/01/03 04:02:18;;;;;;;7.07;2.58;;;0.70;99.90;;;;;;5075032;28;20050;-88
2024/01/03 04:04:44;;;;;;;5.85;3.60;;;0.70;99.90;;;;;;5060776;28;20029;-87
2024/01/03 04:07:10;;;;;;;3.67;2.47;;;0.70;99.90;;;;;;5025297;28;20025;-88
2024/01/03 04:09:36;;;;;;;4.35;2.72;;;0.70;99.90;;;;;;5055852;28;20050;-87
2024/01/03 04:12:02;;;;;;;5.03;2.78;;;0.70;99.90;;;;;;5045287;28;20389;-88
2024/01/03 04:14:28;;;;;;;4.75;2.85;;;0.70;99.90;;;;;;5061703;28;20040;-88
2024/01/03 04:16:53;;;;;;;5.10;3.35;;;0.70;99.90;;;;;;5078279;28;20077;-88
2024/01/03 04:19:19;;;;;;;5.95;3.60;;;0.60;99.90;;;;;;5044844;28;20036;-88
2024/01/03 04:21:45;;;;;;;4.97;3.25;;;0.60;99.90;;;;;;5061367;28;20028;-88
2024/01/03 04:24:11;;;;;;;7.57;3.83;;;0.60;99.90;;;;;;5061675;28;20024;-88
2024/01/03 04:26:37;;;;;;;13.27;5.53;;;0.50;99.90;;;;;;5045230;28;20119;-87
2024/01/03 04:29:03;;;;;;;13.20;5.72;;;0.60;99.90;;;;;;5045204;28;20028;-88
2024/01/03 04:31:28;;;;;;;12.85;6.35;;;0.50;99.90;;;;;;5061524;28;20035;-88
2024/01/03 04:33:54;;;;;;;8.65;4.57;;;0.50;99.90;;;;;;5061361;28;20047;-88
2024/01/03 04:36:19;;;;;;;7.85;3.92;;;0.60;99.90;;;;;;5044780;28;20028;-88
2024/01/03 04:38:45;;;;;;;6.25;3.17;;;0.50;99.90;;;;;;5053580;28;20021;-88
2024/01/03 04:41:11;;;;;;;5.55;2.78;;;0.50;99.90;;;;;;5041112;28;20063;-88
2024/01/03 04:43:37;;;;;;;3.97;2.60;;;0.50;99.90;;;;;;5040966;28;20033;-88
2024/01/03 04:46:02;;;;;;;2.50;1.50;;;0.40;99.90;;;;;;5048501;28;20016;-88
2024/01/03 04:48:28;;;;;;;3.50;1.90;;;0.40;99.90;;;;;;5060834;28;20020;-88
2024/01/03 04:50:54;;;;;;;3.67;1.80;;;0.40;99.90;;;;;;5044501;28;20025;-87
2024/01/03 04:53:19;;;;;;;3.25;1.50;;;0.40;99.90;;;;;;5061042;28;20032;-87
2024/01/03 04:55:45;;;;;;;4.43;2.00;;;0.40;99.90;;;;;;5044217;28;20257;-87
2024/01/03 04:58:11;;;;;;;4.70;2.58;;;0.40;99.90;;;;;;5057309;28;20505;-87
2024/01/03 05:00:36;;;;;;;5.07;2.47;;;0.40;99.90;;;;;;5024259;28;20032;-87
2024/01/03 05:03:02;;;;;;;4.15;2.42;;;0.30;99.90;;;;;;5040678;28;20029;-87
2024/01/03 05:05:28;;;;;;;5.45;2.75;;;0.30;99.90;;;;;;5058556;28;20028;-87
2024/01/03 05:07:54;;;;;;;6.47;3.30;;;0.30;99.90;;;;;;5060208;28;20393;-88
2024/01/03 05:10:20;;;;;;;5.72;3.10;;;0.20;99.90;;;;;;5024288;28;20556;-87
2024/01/03 05:12:46;;;;;;;12.20;6.75;;;0.20;99.90;;;;;;5040772;28;20064;-87
2024/01/03 05:15:11;;;;;;;10.80;6.60;;;0.20;99.90;;;;;;5040576;28;20542;-88
2024/01/03 05:17:37;;;;;;;9.75;5.57;;;0.20;99.90;;;;;;5057381;28;20056;-88
2024/01/03 05:20:04;;;;;;;8.30;4.75;;;0.20;99.90;;;;;;5078642;28;20093;-88
2024/01/03 05:22:31;;;;;;;8.00;4.30;;;0.20;99.90;;;;;;5069650;28;20055;-88
2024/01/03 05:24:56;;;;;;;7.13;4.05;;;0.20;99.90;;;;;;5097588;28;20024;-87
2024/01/03 05:27:23;;;;;;;8.60;4.47;;;0.20;99.90;;;;;;5097445;28;20103;-87
2024/01/03 05:29:49;;;;;;;7.03;4.10;;;0.20;99.90;;;;;;5080296;28;20115;-86
2024/01/03 05:32:15;;;;;;;7.80;3.35;;;0.20;99.90;;;;;;5080290;28;20062;-86
2024/01/03 05:34:40;;;;;;;6.00;3.45;;;0.20;99.90;;;;;;5097521;28;20028;-86
2024/01/03 05:37:06;;;;;;;6.25;4.00;;;0.20;99.90;;;;;;5080566;28;20049;-86
2024/01/03 05:39:32;;;;;;;5.85;2.80;;;0.10;99.90;;;;;;5062673;28;20067;-86
2024/01/03 05:41:57;;;;;;;5.45;2.75;;;0.10;99.90;;;;;;5023652;28;20115;-86
2024/01/03 05:44:23;;;;;;;4.63;3.33;;;0.10;99.90;;;;;;5024263;28;20500;-86
2024/01/03 05:46:49;;;;;;;4.18;2.50;;;0.10;99.90;;;;;;5041339;28;20507;-86
2024/01/03 05:49:14;;;;;;;4.05;2.45;;;0.10;99.90;;;;;;5023586;28;20435;-86
2024/01/03 05:51:40;;;;;;;3.97;2.63;;;0.10;99.90;;;;;;5023414;28;20025;-86
2024/01/03 05:54:06;;;;;;;4.72;2.70;;;0.10;99.90;;;;;;5046322;28;20040;-85
2024/01/03 05:56:32;;;;;;;4.53;2.65;;;0.10;99.90;;;;;;5079277;28;20023;-86
2024/01/03 05:59:00;;;;;;;3.65;2.30;;;0.10;99.90;;;;;;5063624;28;20054;-87
2024/01/03 06:01:26;;;;;;;5.10;2.30;;;0.10;99.90;;;;;;5080051;28;20490;-86
2024/01/03 06:03:51;;;;;;;5.43;2.85;;;0.10;99.90;;;;;;5115240;28;20108;-86
2024/01/03 06:06:17;;;;;;;4.35;3.05;;;0.10;99.90;;;;;;5063348;28;20020;-86
2024/01/03 06:08:43;;;;;;;6.15;3.85;;;0.20;99.90;;;;;;5089440;28;20043;-86
2024/01/03 06:11:12;;;;;;;5.13;3.25;;;0.20;99.90;;;;;;5047265;28;20035;-86
2024/01/03 06:13:38;;;;;;;5.13;3.38;;;0.20;99.90;;;;;;5060091;28;20046;-85
2024/01/03 06:16:05;;;;;;;5.90;3.05;;;0.20;99.90;;;;;;5063546;28;20027;-86
2024/01/03 06:18:30;;;;;;;5.63;3.40;;;0.20;99.90;;;;;;5097251;28;20110;-86
2024/01/03 06:20:56;;;;;;;8.00;4.20;;;0.30;99.90;;;;;;5080212;28;20420;-86
2024/01/03 06:23:24;;;;;;;6.15;3.67;;;0.30;99.90;;;;;;5097660;28;20115;-86
2024/01/03 06:25:50;;;;;;;4.85;2.80;;;0.30;99.90;;;;;;5080631;28;20479;-85
2024/01/03 06:28:15;;;;;;;4.45;3.35;;;0.30;99.90;;;;;;5079447;28;20712;-84
2024/01/03 06:30:43;;;;;;;4.63;2.95;;;0.30;99.90;;;;;;5096567;28;20059;-84
2024/01/03 06:33:08;;;;;;;4.50;3.22;;;0.30;99.90;;;;;;5096247;28;20027;-84
2024/01/03 06:35:34;;;;;;;6.88;4.30;;;0.30;99.90;;;;;;5079485;28;20027;-84
2024/01/03 06:38:00;;;;;;;9.60;5.43;;;0.30;99.90;;;;;;5094724;28;20093;-85
2024/01/03 06:40:25;;;;;;;9.50;5.30;;;0.30;99.90;;;;;;5075896;28;20450;-83
2024/01/03 06:42:51;;;;;;;8.13;5.30;;;0.30;99.90;;;;;;5076243;28;20024;-84
2024/01/03 06:45:17;;;;;;;10.65;5.25;;;0.30;99.90;;;;;;5091734;28;20387;-83
2024/01/03 06:47:42;;;;;;;8.32;5.15;;;0.40;99.90;;;;;;5095202;28;20028;-83
2024/01/03 06:50:09;;;;;;;12.40;7.13;;;0.40;99.90;;;;;;5093786;28;20024;-83
2024/01/03 06:52:34;;;;;;;8.20;5.20;;;0.50;99.90;;;;;;5059160;28;20123;-84
2024/01/03 06:55:00;;;;;;;8.18;4.97;;;0.50;99.90;;;;;;5093964;28;20093;-84
2024/01/03 06:57:26;;;;;;;10.82;5.78;;;0.50;99.90;;;;;;5075774;28;20036;-84
2024/01/03 06:59:52;;;;;;;9.65;5.40;;;0.50;99.90;;;;;;5094085;28;20061;-84
2024/01/03 07:02:17;;;;;;;9.00;4.88;;;0.40;99.90;;;;;;5099103;28;20031;-84
2024/01/03 07:04:43;;;;;;;9.00;5.22;;;0.40;99.90;;;;;;5114221;28;20028;-84
2024/01/03 07:07:09;;;;;;;11.52;5.93;;;0.40;99.90;;;;;;5077246;28;20548;-84
2024/01/03 07:09:34;;;;;;;8.82;5.25;;;0.40;99.90;;;;;;5079396;28;20038;-85
2024/01/03 07:12:00;;;;;;;9.10;5.20;;;0.40;99.90;;;;;;5077642;28;20036;-85
2024/01/03 07:14:26;;;;;;;13.15;5.10;;;0.30;99.90;;;;;;5078016;28;20038;-85
2024/01/03 07:16:52;;;;;;;9.82;5.00;;;0.40;99.90;;;;;;5043058;28;20029;-85
2024/01/03 07:19:18;;;;;;;9.73;5.03;;;0.40;99.90;;;;;;5077806;28;20115;-84
2024/01/03 07:21:44;;;;;;;8.50;4.80;;;0.40;99.90;;;;;;5042793;28;20024;-85
2024/01/03 07:24:10;;;;;;;14.95;6.85;;;0.40;99.90;;;;;;5077721;28;20419;-85
2024/01/03 07:26:36;;;;;;;10.35;5.65;;;0.40;99.90;;;;;;5077241;28;20444;-84
2024/01/03 07:29:01;;;;;;;10.50;6.03;;;0.40;99.90;;;;;;5060121;28;20052;-84
2024/01/03 07:31:27;;;;;;;10.63;5.63;;;0.40;99.90;;;;;;5078560;28;20017;-84
2024/01/03 07:33:53;;;;;;;9.02;5.50;;;0.40;99.90;;;;;;5078739;28;20040;-84
2024/01/03 07:36:19;;;;;;;11.02;6.57;;;0.40;99.90;;;;;;5077407;28;20020;-83
2024/01/03 07:38:45;;;;;;;12.55;6.20;;;0.40;99.90;;;;;;5078865;28;20025;-83
2024/01/03 07:41:11;;;;;;;20.23;9.82;;;0.40;99.90;;;;;;5059134;28;20159;-83
2024/01/03 07:43:36;;;;;;;16.40;9.38;;;0.40;99.90;;;;;;5077739;28;20029;-84
2024/01/03 07:46:02;;;;;;;21.33;10.10;;;0.40;99.90;;;;;;5083373;28;20012;-83
2024/01/03 07:48:28;;;;;;;16.02;8.98;;;0.40;99.90;;;;;;5097501;28;20025;-83
2024/01/03 07:50:53;;;;;;;16.67;8.43;;;0.40;99.90;;;;;;5063146;28;20039;-83
2024/01/03 07:53:19;;;;;;;15.65;8.25;;;0.40;99.90;;;;;;5071537;28;20084;-83
2024/01/03 07:55:45;;;;;;;16.88;8.38;;;0.40;99.90;;;;;;5097792;28;20032;-83
2024/01/03 07:58:10;;;;;;;13.13;8.05;;;0.40;99.90;;;;;;5097350;28;20024;-84
2024/01/03 08:00:36;;;;;;;13.70;7.38;;;0.40;99.90;;;;;;5065023;28;20066;-84
2024/01/03 08:03:02;;;;;;;11.70;6.75;;;0.40;99.90;;;;;;5062853;28;20086;-84
2024/01/03 08:05:27;;;;;;;13.05;7.00;;;0.40;99.90;;;;;;5062439;28;20082;-84
2024/01/03 08:07:53;;;;;;;11.88;5.68;;;0.50;99.90;;;;;;5062084;28;20111;-83
2024/01/03 08:10:19;;;;;;;11.30;5.00;;;0.50;99.90;;;;;;5042173;28;20489;-83
2024/01/03 08:12:44;;;;;;;11.48;5.43;;;0.50;99.90;;;;;;5049401;28;20484;-83
2024/01/03 08:15:10;;;;;;;8.63;4.30;;;0.60;99.90;;;;;;5062202;28;20409;-83
2024/01/03 08:17:36;;;;;;;11.45;5.55;;;0.60;99.90;;;;;;5062522;28;20133;-83
2024/01/03 08:20:01;;;;;;;11.55;5.15;;;0.60;99.90;;;;;;5078161;28;20488;-84
2024/01/03 08:22:27;;;;;;;14.90;5.97;;;0.60;99.90;;;;;;5062535;28;20396;-84
2024/01/03 08:24:53;;;;;;;10.15;5.75;;;0.70;99.90;;;;;;5078848;28;20117;-83
2024/01/03 08:27:18;;;;;;;13.95;7.18;;;0.70;99.90;;;;;;5058588;28;20024;-83
2024/01/03 08:29:44;;;;;;;25.98;13.18;;;0.70;99.90;;;;;;5041914;28;20021;-84
2024/01/03 08:32:10;;;;;;;25.90;13.40;;;0.70;99.90;;;;;;5076802;28;20032;-83
2024/01/03 08:34:36;;;;;;;26.48;13.35;;;0.70;99.90;;;;;;5076897;28;20024;-84
2024/01/03 08:37:01;;;;;;;20.63;11.82;;;0.80;99.90;;;;;;5100747;28;20019;-83
2024/01/03 08:39:27;;;;;;;16.33;9.75;;;0.80;99.90;;;;;;5086171;28;20032;-83
2024/01/03 08:41:53;;;;;;;13.93;8.52;;;0.80;99.90;;;;;;5078238;28;20077;-83
2024/01/03 08:44:20;;;;;;;20.33;9.63;;;0.80;99.90;;;;;;5062089;28;20028;-83
2024/01/03 08:46:45;;;;;;;19.67;11.20;;;0.80;99.90;;;;;;5079265;28;20107;-83
2024/01/03 08:49:12;;;;;;;39.95;21.92;;;0.90;99.90;;;;;;5063729;28;20468;-84
2024/01/03 08:51:39;;;;;;;59.45;30.60;;;1.00;99.90;;;;;;5096525;28;20055;-84
2024/01/03 08:54:05;;;;;;;49.67;25.98;;;1.10;99.90;;;;;;5078061;28;20494;-83
2024/01/03 08:56:31;;;;;;;29.17;14.60;;;1.10;99.90;;;;;;5077949;28;20050;-83
2024/01/03 08:58:56;;;;;;;17.33;9.32;;;1.20;99.90;;;;;;5061268;28;20491;-83
2024/01/03 09:01:23;;;;;;;15.85;7.85;;;1.20;99.90;;;;;;5061131;28;20031;-84
2024/01/03 09:03:49;;;;;;;11.57;6.85;;;1.30;99.90;;;;;;5096119;28;20503;-84
2024/01/03 09:06:20;;;;;;;15.15;6.93;;;1.30;99.90;;;;;;5077930;28;20043;-84
2024/01/03 09:08:50;;;;;;;16.55;8.95;;;1.40;99.90;;;;;;5090294;28;20384;-84
2024/01/03 09:11:17;;;;;;;16.37;8.97;;;1.50;99.90;;;;;;5078568;28;20103;-84
2024/01/03 09:13:43;;;;;;;13.88;7.22;;;1.50;99.90;;;;;;5095851;28;20016;-85
2024/01/03 09:16:12;;;;;;;8.93;5.53;;;1.50;99.90;;;;;;5061005;28;20523;-84
2024/01/03 09:18:37;;;;;;;9.75;5.85;;;1.60;99.90;;;;;;5077648;28;20051;-84
2024/01/03 09:21:04;;;;;;;9.50;5.13;;;1.60;99.90;;;;;;5077496;28;20488;-84
2024/01/03 09:23:30;;;;;;;12.07;6.68;;;1.60;99.90;;;;;;5081858;28;20089;-84
2024/01/03 09:25:56;;;;;;;10.57;5.80;;;1.60;99.90;;;;;;5097945;28;20034;-84
2024/01/03 09:28:25;;;;;;;14.02;7.80;;;1.70;99.90;;;;;;5064208;28;20387;-84
2024/01/03 09:30:51;;;;;;;13.98;7.65;;;1.70;99.90;;;;;;5096396;28;20024;-84
2024/01/03 09:33:17;;;;;;;15.55;8.15;;;1.80;99.90;;;;;;5102622;28;20028;-83
2024/01/03 09:35:44;;;;;;;14.50;7.75;;;1.80;99.90;;;;;;5060487;28;20116;-83
2024/01/03 09:38:10;;;;;;;9.82;6.38;;;1.90;99.90;;;;;;5074530;28;20054;-83
2024/01/03 09:40:35;;;;;;;8.82;5.85;;;1.90;99.90;;;;;;5046213;28;20031;-83
2024/01/03 09:43:05;;;;;;;11.85;6.30;;;2.00;99.90;;;;;;5115633;28;20472;-84
2024/01/03 09:45:32;;;;;;;13.32;6.28;;;2.00;99.90;;;;;;5081759;28;20027;-84
2024/01/03 09:47:57;;;;;;;14.02;7.32;;;2.10;99.90;;;;;;5116022;28;20024;-84
2024/01/03 09:50:23;;;;;;;11.82;6.65;;;2.20;99.90;;;;;;5063722;28;20019;-84
2024/01/03 09:52:49;;;;;;;14.35;6.68;;;2.20;99.90;;;;;;5097246;28;20028;-84
2024/01/03 09:55:16;;;;;;;12.45;6.60;;;2.30;99.90;;;;;;5115293;28;20028;-83
2024/01/03 09:57:43;;;;;;;12.88;6.57;;;2.40;99.90;;;;;;5087788;28;20046;-84
2024/01/03 10:00:09;;;;;;;15.65;6.32;;;2.50;99.90;;;;;;5115089;28;20030;-84
2024/01/03 10:02:37;;;;;;;8.02;5.35;;;2.60;99.90;;;;;;5097032;28;20031;-84
2024/01/03 10:05:06;;;;;;;10.65;6.32;;;2.70;99.90;;;;;;5080459;28;20081;-84
2024/01/03 10:07:33;;;;;;;10.57;6.15;;;2.80;99.90;;;;;;5053432;28;20074;-84
2024/01/03 10:09:59;;;;;;;9.93;6.32;;;2.90;99.90;;;;;;5070352;28;20440;-84
2024/01/03 10:12:29;;;;;;;9.85;6.35;;;3.00;99.90;;;;;;5044493;28;20052;-84
2024/01/03 10:14:56;;;;;;;10.82;6.13;;;3.00;99.90;;;;;;5096603;28;20027;-84
2024/01/03 10:17:22;;;;;;;8.80;6.00;;;3.10;99.90;;;;;;5083117;28;20443;-83
2024/01/03 10:19:47;;;;;;;10.93;6.88;;;3.20;99.90;;;;;;5076697;28;20093;-84
2024/01/03 10:22:18;;;;;;;9.82;6.57;;;3.30;99.90;;;;;;5094383;28;20036;-84
2024/01/03 10:24:45;;;;;;;11.52;6.53;;;3.30;99.90;;;;;;5059467;28;20517;-84
2024/01/03 10:27:11;;;;;;;9.88;6.45;;;3.40;99.90;;;;;;5059534;28;20098;-84
2024/01/03 10:29:38;;;;;;;10.95;6.60;;;3.40;99.90;;;;;;5076156;28;20024;-84
2024/01/03 10:32:09;;;;;;;9.85;6.03;;;3.50;99.90;;;;;;5093942;28;20032;-84
2024/01/03 10:34:36;;;;;;;9.77;4.78;;;3.50;99.90;;;;;;5078003;28;20441;-84
2024/01/03 10:37:03;;;;;;;5.68;4.43;;;3.50;99.90;;;;;;5094129;28;20032;-84
2024/01/03 10:39:30;;;;;;;9.45;5.10;;;3.60;99.90;;;;;;5062297;28;20039;-84
2024/01/03 10:41:56;;;;;;;7.15;4.80;;;3.60;99.90;;;;;;5073436;28;20066;-84
2024/01/03 10:44:22;;;;;;;10.68;5.00;;;3.70;99.90;;;;;;5055676;28;20507;-84
2024/01/03 10:46:51;;;;;;;8.80;4.35;;;3.80;99.90;;;;;;5059502;28;20024;-84
2024/01/03 10:49:17;;;;;;;7.88;4.88;;;3.80;99.90;;;;;;5075142;28;20560;-84
2024/01/03 10:51:44;;;;;;;9.15;5.63;;;4.00;99.90;;;;;;5040311;28;20052;-84
2024/01/03 10:54:14;;;;;;;10.05;5.25;;;4.00;99.90;;;;;;5073794;28;20082;-84
2024/01/03 10:56:52;;;;;;;10.80;5.13;;;4.10;99.90;;;;;;5073625;28;20031;-84
2024/01/03 10:59:25;;;;;;;10.15;5.45;;;4.20;99.90;;;;;;5039073;28;20021;-85
2024/01/03 11:01:55;;;;;;;9.48;5.43;;;4.30;99.90;;;;;;5054386;28;20082;-85
2024/01/03 11:04:39;;;;;;;8.45;5.32;;;4.40;99.90;;;;;;5059027;28;20029;-85
2024/01/03 11:07:09;;;;;;;12.68;5.60;;;4.40;99.90;;;;;;5057527;28;20051;-85
2024/01/03 11:09:35;;;;;;;10.65;5.40;;;4.50;99.90;;;;;;5069489;28;20032;-85
2024/01/03 11:13:02;;;;;;;9.05;5.03;;;4.60;99.90;;;;;;5058741;28;20032;-86
2024/01/03 11:16:17;;;;;;;9.90;4.95;;;4.70;99.90;;;;;;5070045;28;20032;-86
2024/01/03 11:22:57;;;;;;;6.10;4.03;;;4.90;99.90;;;;;;5072794;28;20040;-87
2024/01/03 11:26:30;;;;;;;7.05;3.83;;;5.10;99.90;;;;;;5044385;28;20024;-86
2024/01/03 11:56:06;;;;;;;4.60;2.38;;;5.80;99.90;;;;;;4935714;29;19914;-88
2024/01/03 12:02:43;;;;;;;;;;;5.80;99.90;;;;;;4882928;29;20040;-88
2024/01/03 13:12:21;;;;;;;6.85;2.10;;;7.10;99.90;;;;;;5095912;28;20039;-91
2024/01/03 13:14:47;;;;;;;2.67;1.17;;;7.20;99.90;;;;;;5077767;28;20500;-91
2024/01/03 13:17:13;;;;;;;1.75;0.90;;;7.30;99.90;;;;;;5077564;28;20040;-91
2024/01/03 13:19:39;;;;;;;2.13;1.00;;;7.20;99.90;;;;;;5060813;28;20028;-91
2024/01/03 13:22:05;;;;;;;4.43;1.30;;;7.20;99.90;;;;;;5059590;28;20028;-90
2024/01/03 13:24:31;;;;;;;2.95;1.20;;;7.20;99.90;;;;;;5100628;28;20483;-91
2024/01/03 13:26:56;;;;;;;4.55;3.72;;;7.20;99.90;;;;;;5080767;28;20392;-91
2024/01/03 13:29:22;;;;;;;8.55;7.75;;;7.20;99.90;;;;;;5097681;28;20042;-91
2024/01/03 13:31:48;;;;;;;7.07;5.75;;;7.20;99.90;;;;;;5061305;28;20021;-90
2024/01/03 13:34:14;;;;;;;2.63;2.00;;;7.20;99.90;;;;;;5058585;28;20029;-90
2024/01/03 13:36:40;;;;;;;3.55;1.85;;;7.10;99.90;;;;;;5040711;28;20040;-89
2024/01/03 13:39:06;;;;;;;2.65;1.50;;;7.10;99.90;;;;;;5057241;28;20032;-90
2024/01/03 13:41:31;;;;;;;4.38;1.80;;;7.00;99.90;;;;;;5040008;28;20066;-90
2024/01/03 13:43:59;;;;;;;3.83;1.50;;;6.90;99.90;;;;;;5074743;28;20028;-90
2024/01/03 13:46:26;;;;;;;8.75;3.60;;;6.90;99.90;;;;;;5030924;28;20422;-91
2024/01/03 13:48:52;;;;;;;7.32;3.38;;;6.90;99.90;;;;;;5060384;28;20476;-90
2024/01/03 13:51:21;;;;;;;5.38;2.70;;;6.90;99.90;;;;;;5062714;28;20023;-91
2024/01/03 13:53:57;;;;;;;3.72;1.60;;;6.90;99.90;;;;;;5093486;28;20020;-91
2024/01/03 13:56:23;;;;;;;2.47;1.50;;;6.90;99.90;;;;;;5090107;28;20391;-92
2024/01/03 13:58:50;;;;;;;3.38;1.63;;;6.90;99.90;;;;;;5083567;28;20178;-91
2024/01/03 14:01:16;;;;;;;2.25;1.02;;;6.80;99.90;;;;;;5083674;28;20059;-91
2024/01/03 14:03:42;;;;;;;3.33;1.25;;;6.80;99.90;;;;;;5063968;28;20064;-90
2024/01/03 14:06:09;;;;;;;7.57;2.05;;;6.70;99.90;;;;;;5081198;28;20383;-91
2024/01/03 14:08:36;;;;;;;3.35;1.48;;;6.60;99.90;;;;;;5090951;28;20020;-91
2024/01/03 14:11:03;;;;;;;5.05;2.60;;;6.50;99.90;;;;;;5089118;28;20032;-91
2024/01/03 14:13:28;;;;;;;2.85;1.20;;;6.50;99.90;;;;;;5079965;28;20027;-91
2024/01/03 14:15:57;;;;;;;3.05;1.25;;;6.50;99.90;;;;;;5080311;28;20038;-90
2024/01/03 14:18:22;;;;;;;1.38;0.73;;;6.50;99.90;;;;;;5079220;28;20059;-91
2024/01/03 14:20:48;;;;;;;2.22;0.60;;;6.50;99.90;;;;;;5063088;28;20070;-90
2024/01/03 14:23:14;;;;;;;1.73;0.80;;;6.50;99.90;;;;;;5097045;28;20081;-90
2024/01/03 14:25:40;;;;;;;1.15;0.60;;;6.60;99.90;;;;;;5096759;28;20027;-89
2024/01/03 14:28:06;;;;;;;1.50;0.75;;;6.50;99.90;;;;;;5053367;28;20036;-90
2024/01/03 14:30:32;;;;;;;1.63;0.77;;;6.50;99.90;;;;;;5096319;28;20388;-89
2024/01/03 14:32:58;;;;;;;1.63;0.90;;;6.50;99.90;;;;;;5081904;28;20030;-89
2024/01/03 14:35:23;;;;;;;2.78;1.15;;;6.40;99.90;;;;;;5068722;28;20477;-89